Detalii statie ERDEI ROBERT [00001D0F]

Toti senzorii

Date Temperatura solului [C]Precipitatii [mm]Voltaj baterie [mV]Leaf Wetness [Min]HC Air temperature [C]HC Relative humidity [%]Punctul de roua [C]
medieminmaxsumaultimatimpmedieminmaxmediemediemin
2018-02-23 13:00:00 4.2 4.2 4.3 0 7158 4.56 3.85 5.54 0 0 0
2018-02-23 14:00:00 4.1 4 4.3 0 7158 5.64 4.96 6.18 0 0 0
2018-02-23 15:00:00 4.1 4 4.3 0 7118 6.15 5.52 6.72 0 0 0
2018-02-23 16:00:00 4.1 4 4.3 0 7158 6.05 5.49 6.32 0 0 0
2018-02-23 17:00:00 4.1 3.9 4.3 0 7050 5.04 4.71 5.36 0 0 0
2018-02-23 18:00:00 4.1 4 4.3 0 6932 4.34 4.01 4.69 0 0 0
2018-02-23 19:00:00 4.1 4 4.3 0 6874 3.55 3.11 3.94 0 0 0
2018-02-23 20:00:00 4.2 4.1 4.3 0 6834 2.61 2.16 3.07 0 0 0
2018-02-23 21:00:00 4.2 4 4.3 0 6816 1.76 1.09 2.12 0 0 0
2018-02-23 22:00:00 4.2 4.2 4.3 0 6796 0.46 0.02 1.05 0 0 0
2018-02-23 23:00:00 4.2 4.1 4.4 0 6786 -0.24 -0.45 -0.04 0 0 0
2018-02-24 00:00:00 4.3 4.2 4.4 0 6776 -0.71 -1.09 -0.47 0 0 0
2018-02-24 01:00:00 4.3 4.2 4.4 0 6766 -1.17 -1.22 -1.11 0 0 0
2018-02-24 02:00:00 4.3 4.2 4.5 0 6756 -1.31 -1.49 -1.16 0 0 0
2018-02-24 03:00:00 4.3 4.2 4.4 0 6748 -1.55 -1.63 -1.45 0 0 0
2018-02-24 04:00:00 4.3 4.3 4.4 0 6738 -1.81 -2.03 -1.65 0 0 0
2018-02-24 05:00:00 4.3 4.3 4.4 0 6728 -2.29 -2.54 -2.07 0 0 0
2018-02-24 06:00:00 4.3 4.2 4.5 0 6718 -2.82 -3.04 -2.57 0 0 0
2018-02-24 07:00:00 4.3 4.3 4.4 0 6718 -3.25 -3.38 -3.12 0 0 0
2018-02-24 08:00:00 4.3 4.1 4.4 0 6756 -3.77 -4.12 -3.34 0 0 0
2018-02-24 09:00:00 4.2 4.1 4.3 0 7186 -3.49 -3.83 -3.23 0 0 0
2018-02-24 10:00:00 4.2 4.1 4.3 0 7176 -2.52 -2.91 -2.02 0 0 0
2018-02-24 11:00:00 4.2 4 4.3 0 7186 -1.29 -2.1 -0.62 0 0 0
2018-02-24 12:00:00 4.2 4.1 4.3 0 7166 -0.28 -1.03 0.5 0 0 0
2018-02-24 13:00:00 4.2 4 4.4 0 7166 0.67 0.09 1.25 0 0 0
2018-02-24 14:00:00 4.1 4 4.3 0 7176 1.43 0.55 2.21 0 0 0
2018-02-24 15:00:00 4 3.9 4.2 0 7176 1.47 1 1.95 0 0 0
2018-02-24 16:00:00 4 4 4.2 0 7158 1.5 0.79 1.86 0 0 0
2018-02-24 17:00:00 4 4 4.1 0 7158 1.15 0.88 1.63 0 0 0
2018-02-24 18:00:00 4 4 4 0 6992 -0.07 -0.73 0.7 0 0 0
2018-02-24 19:00:00 3.9 3.9 4 0 6904 -1.42 -1.96 -0.87 0 0 0
2018-02-24 20:00:00 3.9 3.8 4 0 6844 -2.36 -2.67 -1.99 0 0 0
2018-02-24 21:00:00 3.9 3.9 4 0 6816 -2.85 -3.4 -2.54 0 0 0
2018-02-24 22:00:00 3.9 3.8 4.1 0 6776 -3.6 -3.81 -3.41 0 0 0
2018-02-24 23:00:00 3.9 3.7 4 0 6766 -3.72 -3.91 -3.55 0 0 0
2018-02-25 00:00:00 3.8 3.8 4.1 0 6756 -4.15 -4.38 -3.89 0 0 0
2018-02-25 01:00:00 3.8 3.7 4 0 6766 -4.74 -5.06 -4.45 0 0 0
2018-02-25 02:00:00 3.8 3.7 3.9 0 6728 -5.72 -6.26 -5.09 0 0 0
2018-02-25 03:00:00 3.8 3.7 4 0 6718 -6.62 -6.92 -6.34 0 0 0
2018-02-25 04:00:00 3.7 3.7 3.8 0 6728 -7.23 -7.45 -6.94 0 0 0
2018-02-25 05:00:00 3.7 3.6 3.8 0 6718 -7.69 -7.94 -7.45 0 0 0
2018-02-25 06:00:00 3.7 3.6 3.8 0 6678 -8.14 -8.34 -7.97 0 0 0
2018-02-25 07:00:00 3.6 3.5 3.8 0 6698 -8.43 -8.54 -8.32 0 0 0
2018-02-25 08:00:00 3.6 3.5 3.8 0 6708 -8.57 -8.7 -8.38 0 0 0
2018-02-25 09:00:00 3.6 3.6 3.7 0 7196 -7.58 -8.3 -6.92 0 0 0
2018-02-25 10:00:00 3.6 3.5 3.7 0 7196 -6.23 -6.82 -5.7 0 0 0
2018-02-25 11:00:00 3.5 3.5 3.6 0 7166 -5.05 -5.68 -4.18 0 0 0
2018-02-25 12:00:00 3.5 3.4 3.6 0 7166 -3.56 -4.35 -2.65 0 0 0